createdAt,value
2018-09-02T00:01:10.062Z,2.27
2018-09-02T00:03:37.678Z,2.22
2018-09-02T00:06:05.322Z,1.52
2018-09-02T00:08:33.096Z,1.45
2018-09-02T00:11:01.151Z,1.80
2018-09-02T00:13:28.791Z,1.70
2018-09-02T00:15:56.437Z,1.50
2018-09-02T00:18:24.084Z,1.75
2018-09-02T00:20:51.712Z,1.60
2018-09-02T00:23:19.334Z,1.75
2018-09-02T00:25:46.965Z,2.20
2018-09-02T00:28:14.607Z,2.08
2018-09-02T00:30:42.236Z,1.95
2018-09-02T00:33:10.296Z,2.00
2018-09-02T00:35:37.800Z,2.12
2018-09-02T00:38:05.428Z,2.27
2018-09-02T00:40:33.131Z,2.08
2018-09-02T00:43:00.716Z,2.00
2018-09-02T00:45:28.719Z,2.67
2018-09-02T00:47:56.289Z,2.98
2018-09-02T00:50:24.689Z,3.58
2018-09-02T00:52:52.692Z,3.10
2018-09-02T00:55:20.318Z,2.45
2018-09-02T00:57:48.021Z,2.15
2018-09-02T01:00:15.700Z,2.62
2018-09-02T01:02:43.573Z,3.05
2018-09-02T01:05:11.173Z,3.15
2018-09-02T01:07:38.823Z,3.30
2018-09-02T01:10:06.636Z,3.30
2018-09-02T01:12:34.202Z,3.10
2018-09-02T01:15:01.760Z,2.90
2018-09-02T01:17:29.397Z,2.85
2018-09-02T01:19:56.940Z,3.37
2018-09-02T01:22:24.491Z,3.02
2018-09-02T01:24:52.308Z,2.87
2018-09-02T01:27:19.880Z,3.20
2018-09-02T01:29:47.459Z,3.17
2018-09-02T01:32:15.339Z,2.75
2018-09-02T01:34:42.902Z,3.12
2018-09-02T01:37:10.464Z,2.60
2018-09-02T01:39:38.278Z,2.47
2018-09-02T01:42:05.960Z,2.75
2018-09-02T01:44:33.584Z,2.42
2018-09-02T01:47:01.391Z,2.37
2018-09-02T01:49:28.953Z,2.92
2018-09-02T01:51:56.566Z,2.40
2018-09-02T01:54:24.182Z,2.50
2018-09-02T01:56:51.762Z,3.08
2018-09-02T01:59:19.479Z,2.65
2018-09-02T02:01:47.087Z,2.98
2018-09-02T02:04:14.693Z,2.42
2018-09-02T02:06:42.275Z,2.85
2018-09-02T02:09:10.789Z,2.52
2018-09-02T02:11:38.628Z,2.45
2018-09-02T02:14:06.432Z,3.05
2018-09-02T02:16:34.020Z,2.80
2018-09-02T02:19:01.804Z,3.25
2018-09-02T02:21:29.343Z,3.12
2018-09-02T02:23:57.018Z,3.40
2018-09-02T02:26:24.859Z,3.00
2018-09-02T02:28:52.407Z,3.10
2018-09-02T02:31:20.024Z,2.80
2018-09-02T02:33:47.672Z,2.60
2018-09-02T02:36:15.347Z,2.58
2018-09-02T02:38:43.085Z,2.50
2018-09-02T02:41:10.741Z,2.65
2018-09-02T02:43:38.335Z,3.83
2018-09-02T02:46:05.984Z,5.15
2018-09-02T02:48:33.771Z,4.72
2018-09-02T02:51:01.840Z,4.37
2018-09-02T02:53:29.653Z,4.50
2018-09-02T02:55:57.291Z,3.35
2018-09-02T02:58:25.043Z,3.27
2018-09-02T03:00:52.825Z,3.90
2018-09-02T03:03:20.656Z,3.80
2018-09-02T03:05:54.399Z,3.95
2018-09-02T03:08:22.299Z,2.80
2018-09-02T03:10:49.971Z,2.70
2018-09-02T03:13:17.706Z,2.80
2018-09-02T03:15:45.328Z,2.52
2018-09-02T03:18:12.925Z,2.70
2018-09-02T03:20:40.876Z,3.12
2018-09-02T03:23:08.428Z,2.62
2018-09-02T03:25:36.192Z,2.65
2018-09-02T03:28:03.799Z,2.30
2018-09-02T03:30:31.506Z,3.22
2018-09-02T03:32:59.092Z,3.00
2018-09-02T03:35:26.724Z,4.45
2018-09-02T03:37:54.488Z,3.20
2018-09-02T03:40:22.127Z,3.30
2018-09-02T03:42:49.676Z,3.65
2018-09-02T03:45:17.429Z,3.70
2018-09-02T03:47:45.049Z,3.50
2018-09-02T03:50:12.645Z,2.75
2018-09-02T03:52:40.462Z,2.80
2018-09-02T03:55:08.122Z,2.58
2018-09-02T03:57:35.704Z,2.72
2018-09-02T04:00:03.433Z,2.90
2018-09-02T04:02:30.991Z,2.50
2018-09-02T04:04:58.693Z,2.50
2018-09-02T04:07:26.303Z,2.80
2018-09-02T04:09:53.908Z,2.70
2018-09-02T04:12:21.545Z,3.77
2018-09-02T04:14:49.141Z,3.30
2018-09-02T04:17:16.694Z,3.15
2018-09-02T04:19:44.379Z,2.45
2018-09-02T04:22:11.967Z,2.85
2018-09-02T04:24:39.593Z,2.12
2018-09-02T04:27:07.347Z,3.10
2018-09-02T04:29:34.947Z,2.80
2018-09-02T04:32:02.573Z,3.30
2018-09-02T04:34:30.217Z,3.08
2018-09-02T04:36:57.876Z,3.10
2018-09-02T04:39:25.437Z,2.80
2018-09-02T04:41:53.289Z,4.20
2018-09-02T04:44:20.909Z,3.20
2018-09-02T04:46:48.466Z,3.12
2018-09-02T04:49:16.030Z,3.10
2018-09-02T04:51:43.776Z,3.08
2018-09-02T04:54:11.381Z,3.40
2018-09-02T04:56:39.050Z,3.12
2018-09-02T04:59:06.611Z,2.83
2018-09-02T05:01:34.186Z,2.75
2018-09-02T05:04:01.817Z,3.77
2018-09-02T05:06:29.428Z,3.65
2018-09-02T05:08:57.056Z,3.12
2018-09-02T05:11:24.696Z,4.12
2018-09-02T05:13:52.286Z,5.72
2018-09-02T05:16:19.883Z,3.83
2018-09-02T05:18:47.467Z,5.15
2018-09-02T05:21:15.034Z,4.55
2018-09-02T05:23:42.819Z,4.10
2018-09-02T05:26:10.450Z,4.30
2018-09-02T05:28:38.064Z,3.90
2018-09-02T05:31:05.741Z,3.58
2018-09-02T05:33:33.298Z,4.40
2018-09-02T05:36:01.198Z,3.52
2018-09-02T05:38:28.868Z,3.77
2018-09-02T05:40:56.502Z,3.47
2018-09-02T05:43:24.180Z,3.30
2018-09-02T05:45:51.770Z,5.45
2018-09-02T05:48:19.316Z,5.03
2018-09-02T05:50:46.990Z,5.53
2018-09-02T05:53:14.592Z,5.30
2018-09-02T05:55:42.448Z,5.20
2018-09-02T05:58:10.097Z,5.12
2018-09-02T06:00:37.765Z,6.30
2018-09-02T06:03:05.380Z,6.30
2018-09-02T06:05:33.091Z,6.35
2018-09-02T06:08:00.644Z,6.30
2018-09-02T06:10:28.190Z,6.30
2018-09-02T06:12:55.763Z,7.00
2018-09-02T06:15:23.307Z,7.45
2018-09-02T06:17:50.934Z,8.50
2018-09-02T06:20:19.051Z,7.33
2018-09-02T06:22:46.655Z,7.90
2018-09-02T06:25:14.295Z,6.85
2018-09-02T06:27:41.916Z,5.85
2018-09-02T06:30:09.644Z,6.80
2018-09-02T06:32:37.287Z,5.92
2018-09-02T06:35:04.933Z,6.50
2018-09-02T06:37:32.508Z,6.65
2018-09-02T06:40:00.105Z,6.85
2018-09-02T06:42:27.720Z,8.20
2018-09-02T06:44:55.331Z,7.53
2018-09-02T06:47:23.173Z,7.08
2018-09-02T06:49:50.737Z,6.75
2018-09-02T06:52:18.325Z,5.62
2018-09-02T06:54:46.043Z,5.83
2018-09-02T06:57:13.629Z,6.33
2018-09-02T06:59:41.327Z,5.10
2018-09-02T07:02:08.958Z,6.08
2018-09-02T07:04:36.504Z,5.42
2018-09-02T07:07:04.116Z,6.40
2018-09-02T07:09:31.727Z,7.83
2018-09-02T07:11:59.281Z,6.17
2018-09-02T07:14:26.940Z,6.53
2018-09-02T07:16:54.489Z,5.95
2018-09-02T07:19:22.034Z,5.97
2018-09-02T07:21:49.621Z,6.00
2018-09-02T07:24:17.267Z,6.75
2018-09-02T07:26:44.874Z,6.12
2018-09-02T07:29:12.460Z,5.42
2018-09-02T07:31:40.292Z,5.30
2018-09-02T07:34:08.115Z,5.78
2018-09-02T07:36:35.709Z,5.67
2018-09-02T07:39:04.386Z,5.28
2018-09-02T07:41:31.960Z,5.00
2018-09-02T07:43:59.610Z,5.53
2018-09-02T07:46:27.235Z,5.60
2018-09-02T07:48:54.803Z,5.37
2018-09-02T07:51:22.478Z,5.15
2018-09-02T07:53:50.070Z,6.37
2018-09-02T07:56:17.652Z,5.70
2018-09-02T07:58:45.322Z,5.20
2018-09-02T08:01:12.884Z,5.83
2018-09-02T08:03:40.504Z,5.47
2018-09-02T08:06:08.144Z,5.62
2018-09-02T08:08:36.087Z,6.00
2018-09-02T08:11:03.767Z,5.40
2018-09-02T08:13:31.405Z,5.67
2018-09-02T08:15:58.974Z,6.08
2018-09-02T08:18:26.561Z,6.65
2018-09-02T08:20:54.216Z,6.62
2018-09-02T08:23:21.850Z,6.30
2018-09-02T08:25:49.492Z,7.03
2018-09-02T08:28:17.140Z,7.10
2018-09-02T08:30:44.749Z,6.63
2018-09-02T08:33:12.373Z,6.30
2018-09-02T08:35:39.983Z,5.28
2018-09-02T08:38:07.563Z,4.85
2018-09-02T08:40:35.387Z,6.78
2018-09-02T08:43:02.970Z,5.90
2018-09-02T08:45:30.544Z,6.58
2018-09-02T08:47:58.177Z,6.80
2018-09-02T08:50:25.799Z,6.35
2018-09-02T08:52:53.328Z,6.78
2018-09-02T08:55:21.009Z,6.50
2018-09-02T08:57:48.637Z,6.45
2018-09-02T09:00:17.512Z,6.72
2018-09-02T09:02:45.643Z,8.78
2018-09-02T09:05:13.284Z,8.13
2018-09-02T09:07:41.386Z,8.70
2018-09-02T09:10:09.116Z,8.68
2018-09-02T09:12:36.724Z,9.05
2018-09-02T09:15:04.459Z,9.03
2018-09-02T09:17:32.020Z,9.13
2018-09-02T09:19:59.619Z,8.97
2018-09-02T09:22:27.220Z,10.15
2018-09-02T09:24:54.860Z,10.80
2018-09-02T09:27:22.712Z,10.23
2018-09-02T09:29:50.260Z,10.20
2018-09-02T09:32:18.124Z,10.75
2018-09-02T09:34:45.753Z,9.95
2018-09-02T09:37:13.351Z,9.75
2018-09-02T09:39:40.953Z,11.12
2018-09-02T09:42:08.938Z,11.83
2018-09-02T09:44:36.798Z,10.70
2018-09-02T09:47:04.730Z,10.93
2018-09-02T09:49:32.422Z,10.48
2018-09-02T09:52:00.521Z,9.98
2018-09-02T09:54:28.280Z,9.60
2018-09-02T09:56:56.818Z,8.78
2018-09-02T09:59:24.667Z,8.48
2018-09-02T10:01:52.813Z,8.63
2018-09-02T10:04:20.801Z,8.90
2018-09-02T10:06:48.469Z,10.70
2018-09-02T10:09:16.061Z,9.93
2018-09-02T10:11:44.626Z,10.35
2018-09-02T10:14:12.784Z,10.05
2018-09-02T10:16:40.547Z,9.20
2018-09-02T10:19:08.253Z,9.88
2018-09-02T10:21:35.951Z,9.10
2018-09-02T10:24:04.016Z,8.45
2018-09-02T10:26:31.805Z,7.90
2018-09-02T10:28:59.399Z,8.05
2018-09-02T10:31:27.114Z,8.90
2018-09-02T10:33:54.703Z,9.73
2018-09-02T10:36:22.996Z,9.50
2018-09-02T10:38:51.782Z,9.48
2018-09-02T10:41:19.624Z,8.58
2018-09-02T10:43:47.179Z,8.75
2018-09-02T10:46:14.816Z,9.50
2018-09-02T10:48:42.612Z,8.38
2018-09-02T10:51:10.164Z,9.25
2018-09-02T10:53:37.778Z,11.00
2018-09-02T10:56:06.970Z,10.53
2018-09-02T10:58:34.509Z,11.08
2018-09-02T11:01:02.189Z,10.13
2018-09-02T11:03:29.911Z,9.33
2018-09-02T11:05:57.443Z,10.48
2018-09-02T11:08:24.984Z,9.78
2018-09-02T11:10:53.468Z,10.00
2018-09-02T11:13:21.075Z,9.40
2018-09-02T11:15:48.708Z,8.28
2018-09-02T11:18:16.357Z,9.78
2018-09-02T11:20:44.371Z,9.45
2018-09-02T11:23:11.958Z,7.92
2018-09-02T11:25:39.552Z,8.98
2018-09-02T11:28:07.546Z,9.50
2018-09-02T11:30:35.096Z,9.23
2018-09-02T11:33:02.736Z,10.28
2018-09-02T11:35:30.361Z,9.70
2018-09-02T11:37:57.919Z,9.63
2018-09-02T11:40:25.560Z,11.00
2018-09-02T11:42:53.144Z,10.93
2018-09-02T11:45:20.692Z,9.00
2018-09-02T11:47:48.225Z,9.43
2018-09-02T11:50:16.208Z,8.38
2018-09-02T11:52:43.913Z,7.58
2018-09-02T11:55:11.474Z,7.17
2018-09-02T11:57:39.179Z,7.50
2018-09-02T12:00:06.976Z,11.63
2018-09-02T12:02:34.699Z,11.35
2018-09-02T12:05:02.357Z,10.87
2018-09-02T12:07:29.983Z,9.53
2018-09-02T12:09:57.822Z,8.10
2018-09-02T12:12:25.389Z,8.38
2018-09-02T12:14:53.378Z,8.13
2018-09-02T12:17:20.798Z,8.83
2018-09-02T12:19:48.456Z,8.40
2018-09-02T12:22:16.651Z,8.75
2018-09-02T12:24:44.333Z,10.80
2018-09-02T12:27:12.345Z,9.20
2018-09-02T12:29:39.930Z,7.45
2018-09-02T12:32:07.538Z,8.80
2018-09-02T12:34:35.091Z,7.97
2018-09-02T12:37:02.677Z,8.28
2018-09-02T12:39:30.304Z,8.28
2018-09-02T12:41:57.897Z,8.90
2018-09-02T12:44:25.477Z,8.83
2018-09-02T12:46:53.156Z,9.18
2018-09-02T12:49:20.719Z,10.00
2018-09-02T12:51:48.340Z,8.38
2018-09-02T12:54:16.018Z,7.80
2018-09-02T12:56:43.604Z,8.03
2018-09-02T12:59:11.185Z,9.00
2018-09-02T13:01:38.876Z,9.93
2018-09-02T13:04:06.475Z,9.15
2018-09-02T13:06:34.046Z,8.60
2018-09-02T13:09:01.984Z,8.23
2018-09-02T13:11:29.607Z,9.00
2018-09-02T13:13:58.220Z,8.38
2018-09-02T13:16:25.812Z,8.10
2018-09-02T13:18:53.449Z,9.98
2018-09-02T13:21:21.049Z,9.33
2018-09-02T13:23:48.675Z,8.05
2018-09-02T13:26:23.264Z,7.72
2018-09-02T13:28:50.884Z,8.23
2018-09-02T13:31:18.404Z,8.35
2018-09-02T13:33:46.011Z,8.38
2018-09-02T13:36:13.833Z,8.43
2018-09-02T13:38:41.371Z,7.72
2018-09-02T13:41:08.932Z,8.85
2018-09-02T13:43:36.718Z,7.55
2018-09-02T13:46:04.289Z,6.33
2018-09-02T13:48:31.982Z,8.95
2018-09-02T13:50:59.605Z,7.70
2018-09-02T13:53:27.202Z,7.28
2018-09-02T13:55:54.796Z,10.78
2018-09-02T13:58:22.571Z,9.80
2018-09-02T14:00:50.171Z,10.55
2018-09-02T14:03:17.768Z,9.93
2018-09-02T14:05:45.443Z,10.18
2018-09-02T14:08:13.050Z,10.90
2018-09-02T14:10:40.604Z,11.90
2018-09-02T14:13:08.259Z,12.55
2018-09-02T14:15:35.868Z,10.63
2018-09-02T14:18:03.770Z,9.28
2018-09-02T14:20:31.425Z,10.48
2018-09-02T14:22:59.014Z,9.75
2018-09-02T14:25:27.057Z,11.50
2018-09-02T14:27:54.685Z,13.93
2018-09-02T14:30:22.270Z,12.18
2018-09-02T14:32:50.087Z,13.08
2018-09-02T14:37:56.823Z,14.73
2018-09-02T14:40:24.424Z,14.53
2018-09-02T14:42:52.032Z,13.32
2018-09-02T14:45:19.718Z,15.68
2018-09-02T14:47:47.280Z,14.50
2018-09-02T14:50:14.952Z,15.55
2018-09-02T14:52:42.584Z,15.35
2018-09-02T14:55:10.578Z,12.82
2018-09-02T14:57:38.596Z,14.20
2018-09-02T15:00:06.496Z,15.48
2018-09-02T15:02:34.277Z,15.50
2018-09-02T15:05:02.205Z,13.38
2018-09-02T15:07:29.745Z,17.87
2018-09-02T15:09:57.748Z,16.65
2018-09-02T15:12:25.302Z,16.45
2018-09-02T15:14:52.870Z,14.70
2018-09-02T15:17:20.459Z,14.30
2018-09-02T15:19:48.022Z,14.23
2018-09-02T15:22:15.569Z,14.65
2018-09-02T15:24:43.327Z,15.45
2018-09-02T15:27:10.931Z,13.10
2018-09-02T15:29:38.660Z,12.63
2018-09-02T15:32:06.395Z,12.37
2018-09-02T15:34:33.945Z,15.50
2018-09-02T15:37:01.510Z,15.50
2018-09-02T15:39:29.195Z,13.03
2018-09-02T15:41:56.714Z,11.33
2018-09-02T15:44:24.309Z,9.85
2018-09-02T15:46:51.903Z,11.53
2018-09-02T15:49:19.496Z,10.43
2018-09-02T15:51:47.135Z,10.25
2018-09-02T15:54:14.702Z,10.50
2018-09-02T15:56:42.222Z,11.90
2018-09-02T15:59:09.875Z,12.18
2018-09-02T16:01:37.412Z,12.82
2018-09-02T16:04:04.992Z,14.77
2018-09-02T16:06:32.679Z,15.98
2018-09-02T16:09:00.212Z,17.15
2018-09-02T16:11:27.802Z,15.43
2018-09-02T16:13:55.359Z,14.93
2018-09-02T16:16:22.957Z,13.40
2018-09-02T16:18:50.506Z,12.28
2018-09-02T16:21:18.042Z,13.72
2018-09-02T16:23:45.666Z,12.93
2018-09-02T16:26:13.566Z,13.45
2018-09-02T16:28:42.037Z,13.15
2018-09-02T16:31:16.347Z,12.10
2018-09-02T16:33:43.953Z,11.88
2018-09-02T16:36:11.530Z,12.18
2018-09-02T16:38:39.781Z,12.78
2018-09-02T16:41:07.299Z,13.53
2018-09-02T16:43:35.609Z,17.02
2018-09-02T16:46:03.275Z,13.58
2018-09-02T16:48:30.885Z,12.80
2018-09-02T16:50:58.481Z,13.20
2018-09-02T16:53:26.092Z,16.70
2018-09-02T16:55:53.727Z,16.90
2018-09-02T16:58:21.435Z,17.40
2018-09-02T17:00:49.023Z,18.17
2018-09-02T17:03:16.650Z,20.40
2018-09-02T17:05:44.367Z,17.98
2018-09-02T17:08:11.988Z,20.23
2018-09-02T17:10:39.648Z,21.35
2018-09-02T17:13:07.313Z,21.12
2018-09-02T17:15:34.961Z,20.65
2018-09-02T17:18:02.820Z,24.37
2018-09-02T17:20:36.643Z,23.12
2018-09-02T17:23:10.367Z,24.63
2018-09-02T17:25:38.046Z,23.50
2018-09-02T17:28:05.785Z,27.85
2018-09-02T17:30:33.403Z,22.90
2018-09-02T17:33:01.130Z,21.35
2018-09-02T17:35:28.727Z,21.52
2018-09-02T17:37:56.412Z,19.10
2018-09-02T17:40:23.984Z,18.87
2018-09-02T17:42:51.549Z,16.80
2018-09-02T17:45:19.264Z,14.85
2018-09-02T17:47:46.855Z,13.50
2018-09-02T17:50:14.452Z,21.10
2018-09-02T17:52:42.726Z,17.10
2018-09-02T17:55:10.316Z,18.77
2018-09-02T17:57:37.907Z,19.07
2018-09-02T18:00:05.936Z,19.07
2018-09-02T18:02:34.109Z,18.12
2018-09-02T18:05:01.677Z,19.20
2018-09-02T18:07:29.374Z,22.67
2018-09-02T18:09:56.947Z,18.92
2018-09-02T18:12:24.572Z,16.02
2018-09-02T18:14:52.341Z,15.90
2018-09-02T18:17:19.929Z,21.57
2018-09-02T18:19:47.524Z,20.20
2018-09-02T18:22:15.313Z,20.17
2018-09-02T18:24:43.031Z,17.57
2018-09-02T18:27:10.704Z,16.95
2018-09-02T18:29:38.316Z,17.67
2018-09-02T18:32:05.900Z,17.55
2018-09-02T18:34:33.512Z,16.50
2018-09-02T18:37:01.084Z,17.25
2018-09-02T18:39:28.662Z,15.48
2018-09-02T18:41:56.279Z,15.40
2018-09-02T18:44:23.877Z,13.78
2018-09-02T18:46:51.736Z,15.05
2018-09-02T18:49:19.439Z,15.88
2018-09-02T18:51:47.107Z,16.67
2018-09-02T18:54:14.791Z,15.83
2018-09-02T18:56:42.433Z,17.98
2018-09-02T18:59:10.067Z,18.40
2018-09-02T19:01:37.617Z,17.70
2018-09-02T19:04:05.320Z,18.77
2018-09-02T19:06:32.995Z,16.05
2018-09-02T19:09:00.657Z,14.03
2018-09-02T19:11:28.393Z,17.35
2018-09-02T19:13:55.989Z,20.05
2018-09-02T19:16:23.572Z,16.80
2018-09-02T19:18:51.193Z,16.37
2018-09-02T19:21:18.759Z,14.50
2018-09-02T19:23:46.624Z,19.65
2018-09-02T19:26:14.239Z,17.10
2018-09-02T19:28:41.846Z,16.90
2018-09-02T19:31:09.562Z,17.48
2018-09-02T19:33:37.160Z,19.05
2018-09-02T19:36:04.797Z,18.15
2018-09-02T19:38:32.468Z,18.62
2018-09-02T19:41:00.003Z,20.87
2018-09-02T19:43:27.592Z,19.77
2018-09-02T19:45:55.436Z,17.55
2018-09-02T19:48:23.094Z,14.68
2018-09-02T19:50:50.894Z,14.58
2018-09-02T19:53:18.477Z,18.17
2018-09-02T19:55:46.128Z,16.40
2018-09-02T19:58:13.761Z,20.97
2018-09-02T20:00:41.552Z,17.02
2018-09-02T20:03:09.129Z,15.58
2018-09-02T20:05:36.716Z,20.70
2018-09-02T20:08:04.702Z,19.77
2018-09-02T20:10:32.308Z,19.57
2018-09-02T20:12:59.873Z,19.10
2018-09-02T20:15:27.633Z,17.65
2018-09-02T20:17:55.169Z,15.72
2018-09-02T20:20:22.811Z,19.17
2018-09-02T20:22:50.652Z,18.02
2018-09-02T20:25:18.230Z,19.90
2018-09-02T20:27:45.811Z,17.37
2018-09-02T20:30:13.924Z,16.07
2018-09-02T20:32:41.553Z,15.32
2018-09-02T20:35:09.226Z,14.83
2018-09-02T20:37:36.907Z,18.15
2018-09-02T20:40:04.807Z,17.87
2018-09-02T20:42:32.372Z,24.15
2018-09-02T20:45:00.149Z,19.48
2018-09-02T20:47:27.925Z,18.60
2018-09-02T20:49:55.773Z,21.23
2018-09-02T20:52:23.445Z,17.23
2018-09-02T20:54:51.217Z,19.27
2018-09-02T20:57:18.904Z,17.32
2018-09-02T20:59:46.547Z,18.57
2018-09-02T21:02:14.140Z,13.60
2018-09-02T21:04:41.793Z,16.67
2018-09-02T21:07:09.374Z,14.80
2018-09-02T21:09:37.164Z,14.35
2018-09-02T21:12:05.244Z,12.37
2018-09-02T21:14:32.891Z,14.40
2018-09-02T21:17:00.645Z,14.00
2018-09-02T21:19:28.440Z,14.07
2018-09-02T21:21:56.052Z,13.00
2018-09-02T21:24:23.625Z,12.40
2018-09-02T21:26:51.315Z,10.48
2018-09-02T21:29:18.907Z,10.53
2018-09-02T21:31:46.524Z,12.95
2018-09-02T21:34:14.116Z,13.43
2018-09-02T21:36:41.753Z,14.25
2018-09-02T21:39:09.599Z,14.80
2018-09-02T21:41:37.420Z,12.13
2018-09-02T21:44:05.296Z,14.33
2018-09-02T21:46:32.949Z,13.58
2018-09-02T21:49:00.608Z,19.30
2018-09-02T21:51:28.368Z,17.83
2018-09-02T21:53:56.034Z,13.93
2018-09-02T21:56:23.612Z,20.37
2018-09-02T21:58:51.269Z,17.10
2018-09-02T22:01:18.920Z,16.70
2018-09-02T22:03:46.856Z,15.75
2018-09-02T22:06:14.457Z,17.75
2018-09-02T22:08:42.080Z,21.30
2018-09-02T22:11:09.705Z,17.55
2018-09-02T22:13:37.271Z,18.73
2018-09-02T22:16:05.076Z,16.20
2018-09-02T22:18:32.676Z,13.05
2018-09-02T22:21:00.232Z,12.55
2018-09-02T22:23:27.816Z,15.45
2018-09-02T22:25:55.571Z,13.38
2018-09-02T22:28:23.284Z,11.57
2018-09-02T22:30:50.863Z,9.78
2018-09-02T22:33:18.647Z,10.95
2018-09-02T22:35:46.218Z,13.10
2018-09-02T22:38:14.440Z,17.77
2018-09-02T22:40:42.416Z,16.87
2018-09-02T22:43:10.007Z,18.80
2018-09-02T22:45:37.821Z,14.07
2018-09-02T22:48:05.615Z,16.05
2018-09-02T22:50:33.315Z,18.05
2018-09-02T22:53:01.244Z,15.68
2018-09-02T22:55:28.820Z,15.78
2018-09-02T22:57:56.420Z,14.58
2018-09-02T23:00:24.162Z,13.28
2018-09-02T23:02:51.866Z,13.70
2018-09-02T23:05:19.409Z,14.98
2018-09-02T23:07:47.019Z,14.07
2018-09-02T23:10:14.662Z,15.10
2018-09-02T23:12:42.309Z,15.98
2018-09-02T23:15:09.974Z,13.88
2018-09-02T23:17:37.856Z,11.85
2018-09-02T23:20:05.700Z,12.90
2018-09-02T23:22:33.320Z,15.55
2018-09-02T23:25:00.960Z,14.60
2018-09-02T23:27:28.516Z,15.20
2018-09-02T23:29:56.376Z,12.98
2018-09-02T23:32:24.011Z,15.83
2018-09-02T23:34:51.631Z,13.22
2018-09-02T23:37:19.228Z,12.37
2018-09-02T23:39:46.820Z,11.70
2018-09-02T23:42:14.465Z,10.20
2018-09-02T23:44:42.296Z,9.08
2018-09-02T23:47:09.914Z,9.78
2018-09-02T23:49:37.468Z,8.43
2018-09-02T23:52:05.195Z,8.73
2018-09-02T23:54:32.776Z,12.65
2018-09-02T23:57:00.377Z,9.48
2018-09-02T23:59:27.944Z,11.40
